Time;durP1;ratioP1;P1;durP2;ratioP2;P2;SDS_P1;SDS_P2;PMS_P1;PMS_P2;Temp;Humidity;BMP_temperature;BMP_pressure;BME280_temperature;BME280_humidity;BME280_pressure;Samples;Min_cycle;Max_cycle;Signal;HPM_P1;HPM_P2
2021/06/25 00:01:41;;;;;;;6.67;5.97;;;18.50;99.90;;;;;;4925953;29;20701;-70
2021/06/25 00:04:07;;;;;;;6.37;5.77;;;18.40;99.90;;;;;;4927832;29;20220;-73
2021/06/25 00:06:33;;;;;;;5.30;4.60;;;18.40;99.90;;;;;;4927572;29;20184;-72
2021/06/25 00:08:58;;;;;;;6.23;4.77;;;18.40;99.90;;;;;;4926434;29;21108;-72
2021/06/25 00:11:24;;;;;;;5.47;4.97;;;18.40;99.90;;;;;;4928549;29;20743;-72
2021/06/25 00:13:50;;;;;;;5.57;4.30;;;18.40;99.90;;;;;;4926150;29;20195;-71
2021/06/25 00:16:16;;;;;;;5.37;4.87;;;18.50;99.90;;;;;;4924905;29;20200;-71
2021/06/25 00:18:42;;;;;;;4.63;4.23;;;18.40;99.90;;;;;;4927919;29;20425;-72
2021/06/25 00:21:08;;;;;;;6.43;4.80;;;18.40;99.90;;;;;;4926464;29;20191;-72
2021/06/25 00:23:33;;;;;;;5.93;4.47;;;18.50;99.90;;;;;;4925764;29;20191;-73
2021/06/25 00:25:59;;;;;;;5.40;4.90;;;18.60;99.90;;;;;;4929704;29;20667;-71
2021/06/25 00:28:25;;;;;;;5.20;4.70;;;18.60;99.90;;;;;;4926226;29;20189;-72
2021/06/25 00:30:50;;;;;;;5.47;4.97;;;18.40;99.90;;;;;;4925697;29;20187;-71
2021/06/25 00:33:16;;;;;;;5.40;4.90;;;18.40;99.90;;;;;;4925509;29;20587;-71
2021/06/25 00:35:42;;;;;;;5.43;4.73;;;18.40;99.90;;;;;;4926658;29;20283;-71
2021/06/25 00:38:08;;;;;;;5.30;4.80;;;18.50;99.90;;;;;;4924153;29;20577;-71
2021/06/25 00:40:34;;;;;;;5.37;4.63;;;18.50;99.90;;;;;;4928109;29;20514;-72
2021/06/25 00:43:01;;;;;;;5.73;5.13;;;18.50;99.90;;;;;;4923807;29;20246;-71
2021/06/25 00:45:27;;;;;;;5.87;5.27;;;18.40;99.90;;;;;;4923924;29;20471;-71
2021/06/25 00:47:53;;;;;;;6.30;5.40;;;18.40;99.90;;;;;;4924392;29;20439;-72
2021/06/25 00:50:22;;;;;;;5.93;5.33;;;18.40;99.90;;;;;;4925761;29;20673;-71
2021/06/25 00:52:52;;;;;;;5.27;4.77;;;18.40;99.90;;;;;;4925846;29;20459;-71
2021/06/25 00:55:18;;;;;;;7.07;5.40;;;18.40;99.90;;;;;;4924100;29;20980;-72
2021/06/25 00:57:44;;;;;;;6.30;5.23;;;18.50;99.90;;;;;;4925838;29;20447;-71
2021/06/25 01:00:10;;;;;;;6.23;5.03;;;18.50;99.90;;;;;;4926371;29;20874;-71
2021/06/25 01:02:36;;;;;;;6.00;5.40;;;18.50;99.90;;;;;;4924665;29;20208;-72
2021/06/25 01:05:03;;;;;;;7.37;5.03;;;18.50;99.90;;;;;;4924721;29;20466;-71
2021/06/25 01:07:31;;;;;;;5.97;5.47;;;18.50;99.90;;;;;;4924048;29;20651;-72
2021/06/25 01:09:59;;;;;;;7.23;6.53;;;18.40;99.90;;;;;;4926679;29;20503;-72
2021/06/25 01:12:25;;;;;;;12.40;6.40;;;18.40;99.90;;;;;;4925282;29;20471;-71
2021/06/25 01:14:51;;;;;;;6.50;5.83;;;18.40;99.90;;;;;;4926927;29;20468;-71
2021/06/25 01:17:34;;;;;;;7.20;6.20;;;18.40;99.90;;;;;;4925021;29;20451;-72
2021/06/25 01:20:12;;;;;;;7.00;6.30;;;18.40;99.90;;;;;;4924930;29;20446;-71
2021/06/25 01:22:40;;;;;;;8.03;7.33;;;18.30;99.90;;;;;;4925619;29;20542;-72
2021/06/25 01:25:12;;;;;;;8.53;6.77;;;18.40;99.90;;;;;;4925734;29;20475;-72
2021/06/25 01:27:38;;;;;;;6.43;5.83;;;18.50;99.90;;;;;;4924946;29;20438;-72
2021/06/25 01:30:08;;;;;;;6.60;5.93;;;18.50;99.90;;;;;;4927326;29;20452;-71
2021/06/25 01:32:34;;;;;;;7.00;6.30;;;18.50;99.90;;;;;;4924265;29;21043;-72
2021/06/25 01:35:01;;;;;;;7.00;6.30;;;18.50;99.90;;;;;;4925042;29;20503;-72
2021/06/25 01:37:28;;;;;;;7.37;5.43;;;18.60;99.90;;;;;;4924565;29;21654;-71
2021/06/25 01:39:53;;;;;;;6.13;5.37;;;18.60;99.90;;;;;;4925802;29;20443;-72
2021/06/25 01:42:19;;;;;;;6.20;5.60;;;18.50;99.90;;;;;;4924758;29;20821;-71
2021/06/25 01:44:46;;;;;;;6.10;5.50;;;18.60;99.90;;;;;;4924077;29;20224;-71
2021/06/25 01:47:15;;;;;;;6.03;5.50;;;18.50;99.90;;;;;;4925812;29;20204;-71
2021/06/25 01:49:40;;;;;;;5.97;5.47;;;18.60;99.90;;;;;;4923976;29;21598;-71
2021/06/25 01:52:06;;;;;;;6.03;5.43;;;18.50;99.90;;;;;;4923782;29;20464;-71
2021/06/25 01:54:32;;;;;;;5.50;5.00;;;18.60;99.90;;;;;;4925224;29;20195;-71
2021/06/25 01:56:58;;;;;;;6.20;5.53;;;18.60;99.90;;;;;;4926213;29;20450;-71
2021/06/25 01:59:23;;;;;;;6.47;5.87;;;18.70;99.90;;;;;;4924796;29;20695;-70
2021/06/25 02:01:49;;;;;;;7.00;6.30;;;18.70;99.90;;;;;;4922918;29;20276;-70
2021/06/25 02:04:15;;;;;;;6.33;5.50;;;18.60;99.90;;;;;;4925031;29;20227;-70
2021/06/25 02:06:40;;;;;;;8.90;6.97;;;18.60;99.90;;;;;;4924945;29;20187;-71
2021/06/25 02:09:06;;;;;;;9.27;6.73;;;18.50;99.90;;;;;;4925641;29;20440;-70
2021/06/25 02:11:31;;;;;;;7.63;6.80;;;18.40;99.90;;;;;;4924819;29;20202;-71
2021/06/25 02:13:57;;;;;;;8.97;6.83;;;18.50;99.90;;;;;;4925890;29;20266;-72
2021/06/25 02:16:23;;;;;;;13.00;7.40;;;18.50;99.90;;;;;;4924734;29;20926;-71
2021/06/25 02:18:48;;;;;;;8.00;7.20;;;18.60;99.90;;;;;;4923042;29;20199;-70
2021/06/25 02:21:14;;;;;;;7.90;7.20;;;18.60;99.90;;;;;;4924320;29;20196;-70
2021/06/25 02:23:41;;;;;;;8.17;7.37;;;18.50;99.90;;;;;;4925179;29;20192;-72
2021/06/25 02:26:07;;;;;;;9.33;7.80;;;18.30;99.90;;;;;;4922553;29;20559;-71
2021/06/25 02:28:32;;;;;;;11.30;9.10;;;18.20;99.90;;;;;;4923683;29;20447;-70
2021/06/25 02:30:58;;;;;;;9.00;8.10;;;18.20;99.90;;;;;;4923111;29;20200;-71
2021/06/25 02:33:24;;;;;;;9.97;8.97;;;18.10;99.90;;;;;;4925414;29;20295;-74
2021/06/25 02:35:50;;;;;;;13.67;9.30;;;18.10;99.90;;;;;;4923871;29;20459;-71
2021/06/25 02:38:16;;;;;;;9.20;8.30;;;18.20;99.90;;;;;;4922846;29;20845;-71
2021/06/25 02:40:42;;;;;;;13.90;10.20;;;18.30;99.90;;;;;;4924311;29;20447;-71
2021/06/25 02:43:08;;;;;;;10.87;9.77;;;18.20;99.90;;;;;;4923400;29;20207;-72
2021/06/25 02:45:33;;;;;;;10.50;8.80;;;18.30;99.90;;;;;;4924726;29;20985;-72
2021/06/25 02:47:59;;;;;;;10.50;9.23;;;18.40;99.90;;;;;;4924843;29;20251;-72
2021/06/25 02:50:25;;;;;;;10.33;9.23;;;18.40;99.90;;;;;;4920860;29;20234;-71
2021/06/25 02:52:51;;;;;;;11.53;9.90;;;18.40;99.90;;;;;;4927770;29;20320;-71
2021/06/25 02:55:17;;;;;;;12.80;9.93;;;18.30;99.90;;;;;;4926787;29;20223;-71
2021/06/25 02:57:43;;;;;;;10.73;9.47;;;18.30;99.90;;;;;;4927399;29;20203;-71
2021/06/25 03:00:15;;;;;;;11.80;9.53;;;18.20;99.90;;;;;;4927565;29;20535;-72
2021/06/25 03:02:44;;;;;;;12.03;10.30;;;18.10;99.90;;;;;;4927182;29;20786;-72
2021/06/25 03:05:12;;;;;;;13.20;11.40;;;18.00;99.90;;;;;;4926543;29;20474;-71
2021/06/25 03:07:38;;;;;;;14.17;11.17;;;17.90;99.90;;;;;;4928371;29;20438;-71
2021/06/25 03:10:06;;;;;;;13.50;10.17;;;18.10;99.90;;;;;;4927259;29;20435;-70
2021/06/25 03:12:32;;;;;;;13.10;10.63;;;18.10;99.90;;;;;;4926456;29;20558;-70
2021/06/25 03:14:59;;;;;;;12.53;10.87;;;18.10;99.90;;;;;;4926806;29;20444;-71
2021/06/25 03:17:25;;;;;;;16.83;12.27;;;18.00;99.90;;;;;;4928334;29;20432;-72
2021/06/25 03:19:51;;;;;;;13.43;11.40;;;17.90;99.90;;;;;;4927085;29;20445;-71
2021/06/25 03:22:17;;;;;;;15.80;13.00;;;17.90;99.90;;;;;;4927902;29;20603;-70
2021/06/25 03:24:43;;;;;;;20.60;12.50;;;17.80;99.90;;;;;;4926386;29;20777;-73
2021/06/25 03:27:08;;;;;;;16.40;12.60;;;17.80;99.90;;;;;;4926169;29;20444;-70
2021/06/25 03:29:34;;;;;;;16.20;12.13;;;17.70;99.90;;;;;;4923739;29;20199;-71
2021/06/25 03:32:00;;;;;;;16.00;12.87;;;17.60;99.90;;;;;;4927348;29;20368;-73
2021/06/25 03:34:26;;;;;;;19.67;13.10;;;17.70;99.90;;;;;;4926044;29;20542;-70
2021/06/25 03:36:51;;;;;;;19.60;14.10;;;17.60;99.90;;;;;;4926134;29;20208;-71
2021/06/25 03:39:17;;;;;;;17.10;13.03;;;17.60;99.90;;;;;;4924309;29;20203;-70
2021/06/25 03:41:43;;;;;;;18.50;13.23;;;17.60;99.90;;;;;;4923961;29;20240;-70
2021/06/25 03:44:09;;;;;;;17.70;13.93;;;17.70;99.90;;;;;;4927481;29;20347;-71
2021/06/25 03:46:35;;;;;;;17.20;12.03;;;17.70;99.90;;;;;;4927879;29;20283;-70
2021/06/25 03:49:00;;;;;;;15.13;11.30;;;17.80;99.90;;;;;;4926452;29;20192;-71
2021/06/25 03:51:26;;;;;;;13.10;11.30;;;17.70;99.90;;;;;;4926404;29;20220;-70
2021/06/25 03:53:51;;;;;;;14.80;12.23;;;17.80;99.90;;;;;;4925818;29;20196;-72
2021/06/25 03:56:17;;;;;;;18.57;12.37;;;17.70;99.90;;;;;;4925657;29;20191;-70
2021/06/25 03:58:46;;;;;;;14.77;12.03;;;17.70;99.90;;;;;;4925311;29;20224;-71
2021/06/25 04:01:11;;;;;;;14.70;10.87;;;17.70;99.90;;;;;;4918212;29;20206;-72
2021/06/25 04:03:37;;;;;;;16.13;12.80;;;17.70;99.90;;;;;;4925912;29;21198;-70
2021/06/25 04:06:04;;;;;;;16.10;12.07;;;17.60;99.90;;;;;;4926539;29;20192;-71
2021/06/25 04:08:32;;;;;;;19.80;13.37;;;17.70;99.90;;;;;;4927185;29;20512;-70
2021/06/25 04:10:58;;;;;;;18.37;13.10;;;17.60;99.90;;;;;;4925551;29;20447;-70
2021/06/25 04:13:25;;;;;;;20.37;12.80;;;17.60;99.90;;;;;;4926278;29;20506;-72
2021/06/25 04:15:51;;;;;;;18.30;12.70;;;17.70;99.90;;;;;;4925074;29;20857;-70
2021/06/25 04:18:17;;;;;;;21.53;14.40;;;17.60;99.90;;;;;;4927192;29;20479;-72
2021/06/25 04:20:44;;;;;;;17.10;12.70;;;17.60;99.90;;;;;;4927553;29;20294;-69
2021/06/25 04:23:10;;;;;;;19.40;13.13;;;17.60;99.90;;;;;;4926570;29;20215;-70
2021/06/25 04:25:36;;;;;;;18.83;13.67;;;17.50;99.90;;;;;;4926837;29;20521;-71
2021/06/25 04:28:02;;;;;;;22.00;13.87;;;17.60;99.90;;;;;;4926591;29;20431;-71
2021/06/25 04:30:28;;;;;;;25.27;15.00;;;17.60;99.90;;;;;;4924275;29;20247;-72
2021/06/25 04:32:56;;;;;;;21.70;14.33;;;17.60;99.90;;;;;;4926787;29;20447;-71
2021/06/25 04:35:22;;;;;;;18.90;14.50;;;17.60;99.90;;;;;;4925740;29;20857;-71
2021/06/25 04:37:48;;;;;;;21.20;15.57;;;17.70;99.90;;;;;;4927450;29;20527;-72
2021/06/25 04:40:14;;;;;;;19.83;14.60;;;17.80;99.90;;;;;;4924920;29;21362;-71
2021/06/25 04:42:40;;;;;;;20.70;14.70;;;17.80;99.90;;;;;;4926555;29;20640;-71
2021/06/25 04:45:07;;;;;;;24.63;16.53;;;17.80;99.90;;;;;;4926657;29;20251;-71
2021/06/25 04:47:32;;;;;;;22.53;16.50;;;17.70;99.90;;;;;;4926646;29;21101;-71
2021/06/25 04:49:58;;;;;;;28.50;15.20;;;17.70;99.90;;;;;;4925637;29;20451;-70
2021/06/25 04:52:23;;;;;;;24.50;15.47;;;17.90;99.90;;;;;;4923474;29;20687;-73
2021/06/25 04:54:49;;;;;;;21.90;15.83;;;17.80;99.90;;;;;;4924696;29;20287;-73
2021/06/25 04:57:15;;;;;;;30.47;17.77;;;17.90;99.90;;;;;;4924273;29;20251;-72
2021/06/25 04:59:40;;;;;;;23.00;16.53;;;17.80;99.90;;;;;;4925830;29;20196;-71
2021/06/25 05:02:07;;;;;;;27.13;18.70;;;17.80;99.90;;;;;;4925133;29;20247;-71
2021/06/25 05:04:33;;;;;;;29.57;18.00;;;17.90;99.90;;;;;;4923713;29;20212;-71
2021/06/25 05:06:58;;;;;;;25.80;16.90;;;17.90;99.90;;;;;;4925969;29;20462;-71
2021/06/25 05:09:24;;;;;;;23.00;15.90;;;17.90;99.90;;;;;;4924369;29;20192;-72
2021/06/25 05:11:50;;;;;;;27.13;18.23;;;18.00;99.90;;;;;;4925278;29;20216;-72
2021/06/25 05:14:15;;;;;;;25.27;16.83;;;17.90;99.90;;;;;;4923288;29;20191;-71
2021/06/25 05:16:41;;;;;;;27.30;18.53;;;17.90;99.90;;;;;;4924359;29;20196;-73
2021/06/25 05:19:07;;;;;;;27.87;17.40;;;17.90;99.90;;;;;;4927187;29;20199;-73
2021/06/25 05:21:33;;;;;;;30.70;19.50;;;18.00;99.90;;;;;;4922436;29;20247;-73
2021/06/25 05:23:58;;;;;;;26.33;19.57;;;18.00;99.90;;;;;;4925762;29;20498;-71
2021/06/25 05:26:24;;;;;;;30.40;19.83;;;18.00;99.90;;;;;;4924475;29;20239;-71
2021/06/25 05:28:50;;;;;;;29.10;20.17;;;18.00;99.90;;;;;;4924868;29;20203;-71
2021/06/25 05:31:15;;;;;;;30.07;19.97;;;18.00;99.90;;;;;;4926289;29;20275;-72
2021/06/25 05:33:41;;;;;;;26.17;18.50;;;18.10;99.90;;;;;;4918023;29;20270;-72
2021/06/25 05:36:09;;;;;;;28.47;18.10;;;18.10;99.90;;;;;;4923663;29;20211;-72
2021/06/25 05:38:34;;;;;;;26.23;18.00;;;18.10;99.90;;;;;;4924972;29;20275;-71
2021/06/25 05:41:00;;;;;;;27.17;19.30;;;18.10;99.90;;;;;;4925219;29;20528;-72
2021/06/25 05:43:25;;;;;;;27.73;20.07;;;18.00;99.90;;;;;;4926898;29;20242;-71
2021/06/25 05:45:51;;;;;;;24.93;18.83;;;18.00;99.90;;;;;;4924622;29;20215;-71
2021/06/25 05:48:17;;;;;;;26.50;18.57;;;18.10;99.90;;;;;;4925484;29;20259;-70
2021/06/25 05:50:43;;;;;;;25.57;18.30;;;18.10;99.90;;;;;;4923658;29;20204;-71
2021/06/25 05:53:08;;;;;;;26.77;18.40;;;18.10;99.90;;;;;;4924543;29;20279;-70
2021/06/25 05:55:35;;;;;;;28.20;18.20;;;18.10;99.90;;;;;;4923842;29;20196;-72
2021/06/25 05:58:01;;;;;;;27.93;19.07;;;18.10;99.90;;;;;;4923923;29;20643;-72
2021/06/25 06:00:27;;;;;;;26.67;17.73;;;18.10;99.90;;;;;;4925564;29;20468;-71
2021/06/25 06:02:53;;;;;;;24.17;17.17;;;18.00;99.90;;;;;;4923200;29;21205;-72
2021/06/25 06:05:19;;;;;;;24.03;16.80;;;18.00;99.90;;;;;;4924890;29;20467;-71
2021/06/25 06:07:44;;;;;;;21.80;16.27;;;18.10;99.90;;;;;;4925423;29;20431;-72
2021/06/25 06:10:10;;;;;;;22.00;15.60;;;18.20;99.90;;;;;;4926144;29;20284;-72
2021/06/25 06:12:36;;;;;;;21.73;16.50;;;18.20;99.90;;;;;;4923751;29;20336;-71
2021/06/25 06:15:02;;;;;;;25.97;16.53;;;18.10;99.90;;;;;;4921690;29;20523;-71
2021/06/25 06:17:28;;;;;;;20.37;16.33;;;18.10;99.90;;;;;;4925679;29;20219;-71
2021/06/25 06:19:55;;;;;;;21.50;14.87;;;18.10;99.90;;;;;;4923467;29;20971;-71
2021/06/25 06:33:31;;;;;;;14.80;11.60;;;18.00;99.90;;;;;;4927475;29;20458;-72
2021/06/25 06:35:57;;;;;;;13.13;10.30;;;17.90;99.90;;;;;;4926871;29;20962;-73
2021/06/25 06:38:26;;;;;;;10.83;9.13;;;17.90;99.90;;;;;;4926763;29;20435;-72
2021/06/25 06:40:52;;;;;;;14.90;8.57;;;17.90;99.90;;;;;;4924585;29;20740;-71
2021/06/25 06:43:17;;;;;;;12.97;8.33;;;17.90;99.90;;;;;;4925117;29;20592;-72
2021/06/25 06:45:43;;;;;;;11.70;7.90;;;17.90;99.90;;;;;;4922241;29;20316;-72
2021/06/25 06:48:09;;;;;;;8.53;6.80;;;17.90;99.90;;;;;;4926102;29;20263;-73
2021/06/25 06:50:34;;;;;;;6.90;6.20;;;17.90;99.90;;;;;;4926384;29;20192;-72
2021/06/25 06:53:00;;;;;;;7.87;6.73;;;17.90;99.90;;;;;;4929302;29;20200;-72
2021/06/25 06:55:26;;;;;;;7.10;6.40;;;18.00;99.90;;;;;;4926338;29;20200;-73
2021/06/25 06:57:51;;;;;;;8.27;6.50;;;17.90;99.90;;;;;;4928191;29;20188;-73
2021/06/25 07:00:18;;;;;;;7.57;6.83;;;17.90;99.90;;;;;;4925883;29;20330;-71
2021/06/25 07:02:45;;;;;;;6.13;5.53;;;17.90;99.90;;;;;;4925879;29;20231;-73
2021/06/25 07:05:13;;;;;;;5.87;5.27;;;18.00;99.90;;;;;;4925857;29;20836;-73
2021/06/25 07:07:39;;;;;;;6.20;5.60;;;17.90;99.90;;;;;;4927019;29;20455;-72
2021/06/25 07:10:07;;;;;;;6.90;4.93;;;17.90;99.90;;;;;;4927369;29;20420;-73
2021/06/25 07:12:33;;;;;;;5.97;5.30;;;17.90;99.90;;;;;;4925356;29;20538;-73
2021/06/25 07:14:59;;;;;;;8.43;5.37;;;17.80;99.90;;;;;;4925486;29;20809;-74
2021/06/25 07:17:24;;;;;;;7.07;5.03;;;17.90;99.90;;;;;;4925731;29;20435;-74
2021/06/25 07:19:51;;;;;;;5.10;4.60;;;17.90;99.90;;;;;;4927403;29;20199;-73
2021/06/25 07:22:17;;;;;;;5.40;4.90;;;18.00;99.90;;;;;;4927141;29;20211;-74
2021/06/25 07:24:42;;;;;;;4.73;4.30;;;18.00;99.90;;;;;;4925103;29;20548;-73
2021/06/25 07:27:08;;;;;;;5.73;4.67;;;18.00;99.90;;;;;;4928751;29;20523;-73
2021/06/25 07:29:34;;;;;;;5.30;4.80;;;17.90;99.90;;;;;;4925728;29;20188;-73
2021/06/25 07:32:00;;;;;;;5.90;4.77;;;17.90;99.90;;;;;;4924037;29;20226;-72
2021/06/25 07:34:26;;;;;;;4.43;4.03;;;17.90;99.90;;;;;;4926448;29;20184;-73
2021/06/25 07:36:52;;;;;;;4.87;4.40;;;17.90;99.90;;;;;;4926465;29;20451;-72
2021/06/25 07:39:18;;;;;;;5.97;4.73;;;17.90;99.90;;;;;;4926816;29;20431;-72
2021/06/25 07:41:46;;;;;;;4.47;4.07;;;18.00;99.90;;;;;;4925217;29;20810;-74
2021/06/25 07:44:11;;;;;;;4.97;4.50;;;17.90;99.90;;;;;;4926581;29;20457;-76
2021/06/25 07:46:37;;;;;;;7.20;3.93;;;17.90;99.90;;;;;;4926217;29;20519;-72
2021/06/25 07:49:03;;;;;;;5.10;4.20;;;17.90;99.90;;;;;;4927579;29;20675;-72
2021/06/25 07:51:29;;;;;;;6.00;4.00;;;17.90;99.90;;;;;;4926085;29;20210;-70
2021/06/25 07:53:55;;;;;;;4.70;4.30;;;17.90;99.90;;;;;;4927175;29;20887;-73
2021/06/25 07:56:21;;;;;;;5.43;4.80;;;17.90;99.90;;;;;;4928541;29;20511;-73
2021/06/25 07:58:46;;;;;;;8.57;4.40;;;17.80;99.90;;;;;;4926038;29;20187;-73
2021/06/25 08:01:12;;;;;;;5.57;4.73;;;17.90;99.90;;;;;;4922418;29;20208;-73
2021/06/25 08:03:38;;;;;;;5.30;4.20;;;17.90;99.90;;;;;;4924898;29;20196;-73
2021/06/25 08:06:04;;;;;;;6.10;5.10;;;18.00;99.90;;;;;;4927524;29;20523;-73
2021/06/25 08:08:30;;;;;;;5.97;5.27;;;18.00;99.90;;;;;;4925505;29;20188;-75
2021/06/25 08:10:55;;;;;;;7.43;5.33;;;17.90;99.90;;;;;;4927554;29;20499;-74
2021/06/25 08:13:21;;;;;;;7.57;5.63;;;18.00;99.90;;;;;;4926022;29;20266;-72
2021/06/25 08:15:50;;;;;;;7.47;5.70;;;18.00;99.90;;;;;;4928707;29;20195;-73
2021/06/25 08:18:18;;;;;;;6.37;5.77;;;18.00;99.90;;;;;;4925244;29;20199;-74
2021/06/25 08:20:45;;;;;;;6.80;5.53;;;17.90;99.90;;;;;;4928043;29;20435;-72
2021/06/25 08:23:11;;;;;;;7.47;6.43;;;17.90;99.90;;;;;;4924471;29;21816;-73
2021/06/25 08:25:37;;;;;;;6.50;5.67;;;17.90;99.90;;;;;;4925234;29;20476;-73
2021/06/25 08:28:04;;;;;;;6.13;5.53;;;18.00;99.90;;;;;;4927157;29;20523;-73
2021/06/25 08:30:29;;;;;;;5.77;4.70;;;18.00;99.90;;;;;;4926460;29;20423;-73
2021/06/25 08:32:55;;;;;;;6.67;6.00;;;18.10;99.90;;;;;;4925535;29;20452;-74
2021/06/25 08:35:22;;;;;;;8.20;6.77;;;18.00;99.90;;;;;;4921894;29;20615;-73
2021/06/25 08:37:49;;;;;;;7.00;6.30;;;18.20;99.90;;;;;;4925445;29;21208;-73
2021/06/25 08:40:15;;;;;;;8.53;6.23;;;18.10;99.90;;;;;;4924163;29;20427;-75
2021/06/25 08:42:41;;;;;;;10.30;6.10;;;18.20;99.90;;;;;;4924825;29;20546;-74
2021/06/25 08:45:09;;;;;;;6.57;5.87;;;18.20;99.90;;;;;;4924406;29;20570;-72
2021/06/25 08:47:55;;;;;;;7.90;7.10;;;18.30;99.90;;;;;;4925327;29;20195;-73
2021/06/25 08:50:24;;;;;;;7.63;5.80;;;18.30;99.90;;;;;;4925762;29;20448;-72
2021/06/25 08:52:52;;;;;;;7.87;6.40;;;18.40;99.90;;;;;;4923872;29;20447;-71
2021/06/25 08:55:18;;;;;;;8.40;7.40;;;18.40;99.90;;;;;;4923500;29;20440;-73
2021/06/25 08:57:44;;;;;;;7.33;6.47;;;18.30;99.90;;;;;;4925125;29;20823;-74
2021/06/25 09:00:13;;;;;;;9.20;6.60;;;18.30;99.90;;;;;;4925242;29;20446;-72
2021/06/25 09:02:39;;;;;;;7.90;6.90;;;18.50;99.90;;;;;;4922798;29;20455;-73
2021/06/25 09:05:23;;;;;;;8.93;7.40;;;18.40;99.90;;;;;;4923918;29;20483;-72
2021/06/25 09:07:50;;;;;;;8.80;7.27;;;18.50;99.90;;;;;;4922689;29;20282;-72
2021/06/25 09:10:28;;;;;;;7.30;6.37;;;18.20;99.90;;;;;;4924566;29;20424;-72
2021/06/25 09:13:04;;;;;;;7.10;6.40;;;18.30;99.90;;;;;;4926401;29;20510;-73
2021/06/25 09:15:31;;;;;;;7.77;6.97;;;18.30;99.90;;;;;;4922815;29;20424;-72
2021/06/25 09:18:03;;;;;;;13.13;7.77;;;18.40;99.90;;;;;;4924234;29;20515;-73
2021/06/25 09:20:31;;;;;;;7.93;6.00;;;18.40;99.90;;;;;;4923832;29;20435;-73
2021/06/25 09:22:57;;;;;;;6.00;5.40;;;18.50;99.90;;;;;;4922716;29;20448;-73
2021/06/25 09:25:23;;;;;;;6.10;5.50;;;18.60;99.90;;;;;;4923472;29;20471;-76
2021/06/25 09:27:56;;;;;;;6.53;5.90;;;18.60;99.90;;;;;;4927038;29;20702;-72
2021/06/25 09:30:24;;;;;;;7.10;5.97;;;18.70;99.90;;;;;;4924716;29;20278;-72
2021/06/25 09:32:50;;;;;;;6.57;5.90;;;18.70;99.90;;;;;;4926089;29;21060;-71
2021/06/25 09:35:18;;;;;;;7.10;6.50;;;18.70;99.90;;;;;;4925447;29;20451;-72
2021/06/25 09:37:48;;;;;;;7.53;5.67;;;18.80;99.90;;;;;;4923025;29;20932;-73
2021/06/25 09:40:16;;;;;;;7.70;6.90;;;19.00;99.90;;;;;;4926504;29;20432;-72
2021/06/25 09:42:44;;;;;;;9.67;6.13;;;19.30;99.90;;;;;;4923721;29;20480;-72
2021/06/25 09:45:15;;;;;;;7.10;6.20;;;19.40;99.90;;;;;;4923464;29;20476;-74
2021/06/25 09:47:52;;;;;;;6.80;5.90;;;19.40;99.90;;;;;;4923994;29;20842;-72
2021/06/25 09:50:27;;;;;;;8.10;6.50;;;19.30;99.90;;;;;;4925339;29;20450;-71
2021/06/25 09:52:58;;;;;;;7.30;6.57;;;19.30;99.90;;;;;;4926064;29;20451;-72
2021/06/25 10:01:28;;;;;;;8.63;7.43;;;19.10;99.90;;;;;;4929272;29;20987;-72
2021/06/25 10:03:59;;;;;;;8.40;6.90;;;19.30;99.90;;;;;;4930316;29;20444;-74
2021/06/25 10:06:30;;;;;;;9.17;8.17;;;19.30;99.90;;;;;;4943586;29;20478;-72
2021/06/25 10:08:56;;;;;;;10.73;8.20;;;19.30;99.90;;;;;;4946427;28;20478;-72
2021/06/25 10:11:30;;;;;;;9.03;8.13;;;19.50;99.90;;;;;;4929038;29;20438;-74
2021/06/25 10:13:58;;;;;;;10.90;9.13;;;19.50;99.90;;;;;;4931818;29;20478;-73
2021/06/25 10:16:24;;;;;;;9.33;8.33;;;19.40;99.90;;;;;;4927581;29;20451;-73
2021/06/25 10:18:55;;;;;;;12.10;9.63;;;19.50;99.90;;;;;;4929829;29;20439;-74
2021/06/25 10:21:26;;;;;;;9.83;8.83;;;19.50;99.90;;;;;;4932223;29;20930;-73
2021/06/25 10:23:53;;;;;;;10.23;8.50;;;19.60;99.90;;;;;;4925464;29;20440;-72
2021/06/25 10:26:20;;;;;;;9.10;7.70;;;19.50;99.90;;;;;;4931173;29;20847;-72
2021/06/25 10:28:48;;;;;;;11.40;9.17;;;19.50;99.90;;;;;;4930075;29;20487;-73
2021/06/25 10:31:16;;;;;;;15.40;9.87;;;19.50;99.90;;;;;;4931873;29;20455;-73
2021/06/25 10:33:43;;;;;;;12.80;11.50;;;19.50;99.90;;;;;;4930998;29;20912;-73
2021/06/25 10:36:11;;;;;;;13.70;10.83;;;19.30;99.90;;;;;;4930672;29;20491;-72
2021/06/25 10:38:43;;;;;;;15.37;11.10;;;19.30;99.90;;;;;;4931181;29;20835;-72
2021/06/25 10:41:11;;;;;;;18.77;12.23;;;19.20;99.90;;;;;;4929366;29;20531;-71
2021/06/25 10:43:37;;;;;;;12.77;11.37;;;19.30;99.90;;;;;;4930681;29;20447;-71
2021/06/25 10:46:03;;;;;;;19.30;12.07;;;19.40;99.90;;;;;;4943449;28;20530;-71
2021/06/25 10:48:39;;;;;;;13.30;11.20;;;19.40;99.90;;;;;;4930629;29;20448;-72
2021/06/25 10:51:33;;;;;;;14.67;12.50;;;19.50;99.90;;;;;;4932197;29;20195;-71
2021/06/25 10:54:14;;;;;;;13.97;12.57;;;19.50;99.90;;;;;;4928014;29;20523;-71
2021/06/25 10:56:49;;;;;;;13.70;12.10;;;19.30;99.90;;;;;;4929627;29;20439;-71
2021/06/25 10:59:19;;;;;;;15.43;13.57;;;19.40;99.90;;;;;;4931062;29;20450;-71
2021/06/25 11:02:01;;;;;;;16.90;14.20;;;19.30;99.90;;;;;;4931430;29;20463;-71
2021/06/25 11:04:34;;;;;;;15.97;14.27;;;19.00;99.90;;;;;;4930264;29;20482;-72
2021/06/25 11:07:04;;;;;;;19.00;15.33;;;19.00;99.90;;;;;;4929166;29;20455;-71
2021/06/25 11:10:06;;;;;;;18.50;16.40;;;19.10;99.90;;;;;;4930703;29;20965;-71
2021/06/25 11:12:39;;;;;;;19.40;16.80;;;18.70;99.90;;;;;;4890504;29;20833;-70
2021/06/25 11:15:04;;;;;;;18.80;15.13;;;18.90;99.90;;;;;;4934308;28;20458;-71
2021/06/25 11:17:49;;;;;;;18.73;15.30;;;18.90;99.90;;;;;;4926049;29;21021;-71
2021/06/25 11:20:23;;;;;;;16.63;14.93;;;18.90;99.90;;;;;;4929504;29;20207;-70
2021/06/25 11:22:53;;;;;;;18.07;14.97;;;18.90;99.90;;;;;;4925905;29;20467;-70
2021/06/25 11:25:39;;;;;;;17.37;15.10;;;18.90;99.90;;;;;;4928175;29;20488;-72
2021/06/25 11:28:15;;;;;;;18.97;15.40;;;18.80;99.90;;;;;;4929215;29;20432;-72
2021/06/25 11:30:50;;;;;;;19.23;15.17;;;19.00;99.90;;;;;;4925714;29;20432;-70
2021/06/25 11:33:32;;;;;;;19.30;16.03;;;19.00;99.90;;;;;;4924288;29;21021;-71
2021/06/25 11:36:14;;;;;;;20.47;15.90;;;19.10;99.90;;;;;;4923902;29;20507;-72
2021/06/25 11:39:04;;;;;;;17.83;15.93;;;19.00;99.90;;;;;;4923943;29;20511;-71
2021/06/25 11:41:35;;;;;;;22.20;18.70;;;19.10;99.90;;;;;;4924478;29;21004;-73
2021/06/25 11:44:05;;;;;;;20.00;17.50;;;19.00;99.90;;;;;;4925001;29;20518;-72
2021/06/25 11:46:32;;;;;;;26.60;19.27;;;19.00;99.90;;;;;;4927778;29;20444;-71
2021/06/25 11:49:02;;;;;;;23.70;19.80;;;19.00;99.90;;;;;;4928136;29;20430;-71
2021/06/25 11:51:40;;;;;;;20.30;17.73;;;19.10;99.90;;;;;;4925918;29;20459;-71
2021/06/25 11:54:09;;;;;;;20.03;17.33;;;19.40;99.90;;;;;;4928325;29;20447;-72
2021/06/25 11:56:36;;;;;;;25.20;18.43;;;19.60;99.90;;;;;;4923409;29;20976;-72
2021/06/25 11:59:09;;;;;;;22.37;18.80;;;19.70;99.90;;;;;;4920359;29;20463;-72
2021/06/25 12:01:48;;;;;;;21.67;18.03;;;20.10;99.90;;;;;;4926622;29;20993;-71
2021/06/25 12:04:14;;;;;;;24.53;19.60;;;20.40;99.90;;;;;;4925822;29;20470;-72
2021/06/25 12:06:51;;;;;;;24.90;20.70;;;20.80;99.90;;;;;;4927926;29;20978;-72
2021/06/25 12:09:17;;;;;;;22.70;18.50;;;20.90;99.90;;;;;;4925243;29;20475;-73
2021/06/25 12:11:43;;;;;;;22.60;19.07;;;21.10;99.90;;;;;;4926335;29;20479;-72
2021/06/25 12:14:10;;;;;;;22.83;18.83;;;21.10;99.90;;;;;;4927099;29;20187;-73
2021/06/25 12:16:39;;;;;;;22.20;18.47;;;21.10;99.90;;;;;;4925696;29;20443;-74
2021/06/25 12:19:11;;;;;;;23.83;19.60;;;21.20;99.90;;;;;;4927911;29;20448;-73
2021/06/25 12:21:38;;;;;;;20.30;17.00;;;21.20;99.90;;;;;;4924523;29;20451;-73
2021/06/25 12:24:05;;;;;;;20.33;17.83;;;21.70;99.90;;;;;;4927455;29;20446;-74
2021/06/25 12:26:31;;;;;;;21.40;16.80;;;21.50;99.90;;;;;;4925901;29;20444;-73
2021/06/25 12:29:00;;;;;;;19.20;16.83;;;21.70;99.90;;;;;;4922188;29;20498;-73
2021/06/25 12:31:32;;;;;;;18.93;16.13;;;21.90;99.90;;;;;;4924264;29;20203;-73
2021/06/25 12:34:08;;;;;;;18.83;16.50;;;22.30;99.90;;;;;;4925749;29;20443;-73
2021/06/25 12:36:34;;;;;;;22.40;17.07;;;22.70;99.90;;;;;;4924330;29;20439;-73
2021/06/25 12:39:02;;;;;;;20.43;18.17;;;23.00;99.90;;;;;;4925016;29;20444;-73
2021/06/25 12:41:28;;;;;;;21.40;17.80;;;23.10;99.90;;;;;;4925832;29;20424;-72
2021/06/25 12:43:55;;;;;;;22.50;18.37;;;23.50;99.90;;;;;;4924737;29;21133;-73
2021/06/25 12:46:23;;;;;;;25.17;21.40;;;23.60;99.90;;;;;;4922905;29;20825;-73
2021/06/25 12:48:50;;;;;;;23.47;20.03;;;23.10;99.90;;;;;;4925486;29;20819;-73
2021/06/25 12:51:19;;;;;;;21.20;18.97;;;23.10;99.90;;;;;;4923819;29;21186;-72
2021/06/25 12:53:47;;;;;;;24.20;21.60;;;23.40;99.90;;;;;;4926608;29;20444;-73
2021/06/25 12:56:16;;;;;;;21.70;19.40;;;23.80;99.90;;;;;;4924664;29;20435;-73